sensor_id;sensor_type;location;lat;lon;timestamp;P1;durP1;ratioP1;P2;durP2;ratioP2
13061;SDS011;6597;52.218;9.882;2023-06-10T00:00:39;6.00;;;3.07;;
13061;SDS011;6597;52.218;9.882;2023-06-10T00:03:07;3.80;;;2.43;;
13061;SDS011;6597;52.218;9.882;2023-06-10T00:05:33;3.47;;;2.60;;
13061;SDS011;6597;52.218;9.882;2023-06-10T00:08:02;4.63;;;2.70;;
13061;SDS011;6597;52.218;9.882;2023-06-10T00:10:32;3.20;;;2.33;;
13061;SDS011;6597;52.218;9.882;2023-06-10T00:13:00;4.07;;;2.70;;
13061;SDS011;6597;52.218;9.882;2023-06-10T00:15:27;5.60;;;2.53;;
13061;SDS011;6597;52.218;9.882;2023-06-10T00:17:54;5.83;;;3.00;;
13061;SDS011;6597;52.218;9.882;2023-06-10T00:20:21;5.47;;;2.57;;
13061;SDS011;6597;52.218;9.882;2023-06-10T00:22:48;6.40;;;2.70;;
13061;SDS011;6597;52.218;9.882;2023-06-10T00:25:16;6.37;;;2.83;;
13061;SDS011;6597;52.218;9.882;2023-06-10T00:27:43;3.93;;;2.73;;
13061;SDS011;6597;52.218;9.882;2023-06-10T00:30:10;6.77;;;2.80;;
13061;SDS011;6597;52.218;9.882;2023-06-10T00:32:37;4.90;;;2.53;;
13061;SDS011;6597;52.218;9.882;2023-06-10T00:35:04;3.70;;;2.20;;
13061;SDS011;6597;52.218;9.882;2023-06-10T00:37:31;7.13;;;3.17;;
13061;SDS011;6597;52.218;9.882;2023-06-10T00:40:00;3.17;;;2.30;;
13061;SDS011;6597;52.218;9.882;2023-06-10T00:42:28;6.27;;;2.53;;
13061;SDS011;6597;52.218;9.882;2023-06-10T00:44:55;4.77;;;2.53;;
13061;SDS011;6597;52.218;9.882;2023-06-10T00:47:21;3.47;;;2.17;;
13061;SDS011;6597;52.218;9.882;2023-06-10T00:49:49;3.30;;;2.23;;
13061;SDS011;6597;52.218;9.882;2023-06-10T00:52:17;6.80;;;2.40;;
13061;SDS011;6597;52.218;9.882;2023-06-10T00:54:44;5.00;;;2.70;;
13061;SDS011;6597;52.218;9.882;2023-06-10T00:57:11;7.63;;;2.80;;
13061;SDS011;6597;52.218;9.882;2023-06-10T00:59:40;6.37;;;2.73;;
13061;SDS011;6597;52.218;9.882;2023-06-10T01:02:09;4.63;;;2.60;;
13061;SDS011;6597;52.218;9.882;2023-06-10T01:04:35;4.10;;;2.20;;
13061;SDS011;6597;52.218;9.882;2023-06-10T01:07:05;5.30;;;2.60;;
13061;SDS011;6597;52.218;9.882;2023-06-10T01:09:41;4.90;;;2.50;;
13061;SDS011;6597;52.218;9.882;2023-06-10T01:12:16;3.23;;;2.40;;
13061;SDS011;6597;52.218;9.882;2023-06-10T01:14:47;6.17;;;2.53;;
13061;SDS011;6597;52.218;9.882;2023-06-10T01:17:16;3.67;;;2.43;;
13061;SDS011;6597;52.218;9.882;2023-06-10T01:19:43;4.73;;;2.63;;
13061;SDS011;6597;52.218;9.882;2023-06-10T01:22:11;5.60;;;2.47;;
13061;SDS011;6597;52.218;9.882;2023-06-10T01:24:41;3.40;;;2.43;;
13061;SDS011;6597;52.218;9.882;2023-06-10T01:27:10;3.37;;;2.40;;
13061;SDS011;6597;52.218;9.882;2023-06-10T01:29:41;8.60;;;3.30;;
13061;SDS011;6597;52.218;9.882;2023-06-10T01:32:15;5.03;;;2.90;;
13061;SDS011;6597;52.218;9.882;2023-06-10T01:34:47;3.67;;;2.73;;
13061;SDS011;6597;52.218;9.882;2023-06-10T01:37:18;6.97;;;3.27;;
13061;SDS011;6597;52.218;9.882;2023-06-10T01:39:49;4.17;;;2.87;;
13061;SDS011;6597;52.218;9.882;2023-06-10T01:42:16;6.20;;;2.67;;
13061;SDS011;6597;52.218;9.882;2023-06-10T01:44:43;4.77;;;3.00;;
13061;SDS011;6597;52.218;9.882;2023-06-10T01:47:10;6.50;;;2.70;;
13061;SDS011;6597;52.218;9.882;2023-06-10T01:49:36;8.00;;;3.63;;
13061;SDS011;6597;52.218;9.882;2023-06-10T01:52:03;3.40;;;2.67;;
13061;SDS011;6597;52.218;9.882;2023-06-10T01:54:33;8.60;;;3.27;;
13061;SDS011;6597;52.218;9.882;2023-06-10T01:57:00;5.97;;;2.80;;
13061;SDS011;6597;52.218;9.882;2023-06-10T01:59:27;4.73;;;3.43;;
13061;SDS011;6597;52.218;9.882;2023-06-10T02:01:53;5.27;;;3.10;;
13061;SDS011;6597;52.218;9.882;2023-06-10T02:04:20;7.00;;;2.90;;
13061;SDS011;6597;52.218;9.882;2023-06-10T02:06:47;3.43;;;2.50;;
13061;SDS011;6597;52.218;9.882;2023-06-10T02:09:13;3.63;;;2.77;;
13061;SDS011;6597;52.218;9.882;2023-06-10T02:11:41;4.47;;;3.00;;
13061;SDS011;6597;52.218;9.882;2023-06-10T02:14:08;5.37;;;2.93;;
13061;SDS011;6597;52.218;9.882;2023-06-10T02:16:35;5.80;;;3.47;;
13061;SDS011;6597;52.218;9.882;2023-06-10T02:19:04;4.13;;;2.90;;
13061;SDS011;6597;52.218;9.882;2023-06-10T02:21:31;5.97;;;3.07;;
13061;SDS011;6597;52.218;9.882;2023-06-10T02:23:59;7.13;;;3.13;;
13061;SDS011;6597;52.218;9.882;2023-06-10T02:26:26;6.43;;;3.43;;
13061;SDS011;6597;52.218;9.882;2023-06-10T02:28:54;11.30;;;3.50;;
13061;SDS011;6597;52.218;9.882;2023-06-10T02:31:21;7.00;;;3.53;;
13061;SDS011;6597;52.218;9.882;2023-06-10T02:33:49;7.10;;;3.30;;
13061;SDS011;6597;52.218;9.882;2023-06-10T02:36:15;7.87;;;3.40;;
13061;SDS011;6597;52.218;9.882;2023-06-10T02:38:42;6.57;;;2.90;;
13061;SDS011;6597;52.218;9.882;2023-06-10T02:41:09;5.27;;;3.83;;
13061;SDS011;6597;52.218;9.882;2023-06-10T02:43:36;5.43;;;3.00;;
13061;SDS011;6597;52.218;9.882;2023-06-10T02:46:04;7.07;;;3.27;;
13061;SDS011;6597;52.218;9.882;2023-06-10T02:48:31;8.37;;;3.23;;
13061;SDS011;6597;52.218;9.882;2023-06-10T02:50:57;5.33;;;3.10;;
13061;SDS011;6597;52.218;9.882;2023-06-10T02:53:31;7.87;;;3.40;;
13061;SDS011;6597;52.218;9.882;2023-06-10T02:56:04;6.30;;;3.33;;
13061;SDS011;6597;52.218;9.882;2023-06-10T02:58:31;7.33;;;3.70;;
13061;SDS011;6597;52.218;9.882;2023-06-10T03:00:57;9.50;;;3.10;;
13061;SDS011;6597;52.218;9.882;2023-06-10T03:03:26;7.87;;;3.97;;
13061;SDS011;6597;52.218;9.882;2023-06-10T03:06:02;6.50;;;3.20;;
13061;SDS011;6597;52.218;9.882;2023-06-10T03:08:30;6.37;;;3.37;;
13061;SDS011;6597;52.218;9.882;2023-06-10T03:10:59;12.23;;;3.73;;
13061;SDS011;6597;52.218;9.882;2023-06-10T03:13:26;6.07;;;3.40;;
13061;SDS011;6597;52.218;9.882;2023-06-10T03:15:52;5.10;;;3.53;;
13061;SDS011;6597;52.218;9.882;2023-06-10T03:18:25;5.03;;;3.00;;
13061;SDS011;6597;52.218;9.882;2023-06-10T03:20:53;4.97;;;3.17;;
13061;SDS011;6597;52.218;9.882;2023-06-10T03:23:21;9.13;;;3.77;;
13061;SDS011;6597;52.218;9.882;2023-06-10T03:25:48;7.43;;;3.27;;
13061;SDS011;6597;52.218;9.882;2023-06-10T03:28:17;6.30;;;3.67;;
13061;SDS011;6597;52.218;9.882;2023-06-10T03:30:43;5.93;;;3.30;;
13061;SDS011;6597;52.218;9.882;2023-06-10T03:33:11;6.00;;;3.67;;
13061;SDS011;6597;52.218;9.882;2023-06-10T03:35:40;8.03;;;4.00;;
13061;SDS011;6597;52.218;9.882;2023-06-10T03:38:07;5.50;;;3.57;;
13061;SDS011;6597;52.218;9.882;2023-06-10T03:40:33;4.87;;;3.33;;
13061;SDS011;6597;52.218;9.882;2023-06-10T03:43:00;9.63;;;3.87;;
13061;SDS011;6597;52.218;9.882;2023-06-10T03:45:28;6.20;;;3.30;;
13061;SDS011;6597;52.218;9.882;2023-06-10T03:47:55;7.97;;;3.50;;
13061;SDS011;6597;52.218;9.882;2023-06-10T03:50:27;5.03;;;3.50;;
13061;SDS011;6597;52.218;9.882;2023-06-10T03:52:54;6.90;;;3.70;;
13061;SDS011;6597;52.218;9.882;2023-06-10T03:55:24;9.17;;;3.50;;
13061;SDS011;6597;52.218;9.882;2023-06-10T03:57:53;6.20;;;3.97;;
13061;SDS011;6597;52.218;9.882;2023-06-10T04:00:20;9.60;;;3.73;;
13061;SDS011;6597;52.218;9.882;2023-06-10T04:02:47;8.03;;;3.67;;
13061;SDS011;6597;52.218;9.882;2023-06-10T04:05:25;6.80;;;4.13;;
13061;SDS011;6597;52.218;9.882;2023-06-10T04:07:55;5.63;;;3.60;;
13061;SDS011;6597;52.218;9.882;2023-06-10T04:10:22;6.57;;;3.27;;
13061;SDS011;6597;52.218;9.882;2023-06-10T04:12:48;8.60;;;3.80;;
13061;SDS011;6597;52.218;9.882;2023-06-10T04:15:15;6.17;;;3.77;;
13061;SDS011;6597;52.218;9.882;2023-06-10T04:17:42;5.80;;;3.90;;
13061;SDS011;6597;52.218;9.882;2023-06-10T04:20:09;4.47;;;3.37;;
13061;SDS011;6597;52.218;9.882;2023-06-10T04:22:39;9.23;;;4.33;;
13061;SDS011;6597;52.218;9.882;2023-06-10T04:25:08;10.20;;;4.17;;
13061;SDS011;6597;52.218;9.882;2023-06-10T04:27:35;4.93;;;3.53;;
13061;SDS011;6597;52.218;9.882;2023-06-10T04:30:02;8.63;;;3.90;;
13061;SDS011;6597;52.218;9.882;2023-06-10T04:32:31;7.60;;;3.97;;
13061;SDS011;6597;52.218;9.882;2023-06-10T04:34:59;8.80;;;3.93;;
13061;SDS011;6597;52.218;9.882;2023-06-10T04:37:25;11.80;;;3.63;;
13061;SDS011;6597;52.218;9.882;2023-06-10T04:39:54;8.13;;;4.40;;
13061;SDS011;6597;52.218;9.882;2023-06-10T04:42:23;7.20;;;4.33;;
13061;SDS011;6597;52.218;9.882;2023-06-10T04:44:50;8.37;;;4.20;;
13061;SDS011;6597;52.218;9.882;2023-06-10T04:47:16;9.30;;;4.37;;
13061;SDS011;6597;52.218;9.882;2023-06-10T04:49:44;6.13;;;3.90;;
13061;SDS011;6597;52.218;9.882;2023-06-10T04:52:10;7.20;;;4.53;;
13061;SDS011;6597;52.218;9.882;2023-06-10T04:54:39;9.27;;;4.27;;
13061;SDS011;6597;52.218;9.882;2023-06-10T04:57:06;17.03;;;5.40;;
13061;SDS011;6597;52.218;9.882;2023-06-10T04:59:34;9.10;;;4.40;;
13061;SDS011;6597;52.218;9.882;2023-06-10T05:02:02;6.57;;;4.00;;
13061;SDS011;6597;52.218;9.882;2023-06-10T05:04:29;7.70;;;4.07;;
13061;SDS011;6597;52.218;9.882;2023-06-10T05:06:56;6.80;;;4.20;;
13061;SDS011;6597;52.218;9.882;2023-06-10T05:09:22;8.37;;;4.57;;
13061;SDS011;6597;52.218;9.882;2023-06-10T05:11:49;6.97;;;4.03;;
13061;SDS011;6597;52.218;9.882;2023-06-10T05:14:16;6.27;;;4.50;;
13061;SDS011;6597;52.218;9.882;2023-06-10T05:16:45;6.20;;;3.93;;
13061;SDS011;6597;52.218;9.882;2023-06-10T05:19:12;9.03;;;4.60;;
13061;SDS011;6597;52.218;9.882;2023-06-10T05:21:38;12.50;;;5.03;;
13061;SDS011;6597;52.218;9.882;2023-06-10T05:24:05;11.77;;;4.77;;
13061;SDS011;6597;52.218;9.882;2023-06-10T05:26:32;10.63;;;4.57;;
13061;SDS011;6597;52.218;9.882;2023-06-10T05:29:02;12.17;;;4.53;;
13061;SDS011;6597;52.218;9.882;2023-06-10T05:31:29;9.10;;;4.83;;
13061;SDS011;6597;52.218;9.882;2023-06-10T05:33:57;7.87;;;5.20;;
13061;SDS011;6597;52.218;9.882;2023-06-10T05:36:23;7.17;;;4.53;;
13061;SDS011;6597;52.218;9.882;2023-06-10T05:38:51;7.37;;;4.57;;
13061;SDS011;6597;52.218;9.882;2023-06-10T05:41:18;10.43;;;5.20;;
13061;SDS011;6597;52.218;9.882;2023-06-10T05:43:45;13.13;;;5.17;;
13061;SDS011;6597;52.218;9.882;2023-06-10T05:46:11;11.77;;;5.53;;
13061;SDS011;6597;52.218;9.882;2023-06-10T05:48:38;8.33;;;5.00;;
13061;SDS011;6597;52.218;9.882;2023-06-10T05:51:06;6.67;;;4.87;;
13061;SDS011;6597;52.218;9.882;2023-06-10T05:53:32;8.63;;;5.23;;
13061;SDS011;6597;52.218;9.882;2023-06-10T05:55:59;10.23;;;5.77;;
13061;SDS011;6597;52.218;9.882;2023-06-10T05:58:25;9.83;;;5.60;;
13061;SDS011;6597;52.218;9.882;2023-06-10T06:00:52;12.37;;;5.63;;
13061;SDS011;6597;52.218;9.882;2023-06-10T06:03:18;6.57;;;5.17;;
13061;SDS011;6597;52.218;9.882;2023-06-10T06:05:45;10.00;;;5.53;;
13061;SDS011;6597;52.218;9.882;2023-06-10T06:08:13;10.93;;;5.90;;
13061;SDS011;6597;52.218;9.882;2023-06-10T06:10:42;8.10;;;4.77;;
13061;SDS011;6597;52.218;9.882;2023-06-10T06:13:09;9.53;;;5.17;;
13061;SDS011;6597;52.218;9.882;2023-06-10T06:15:36;6.17;;;5.00;;
13061;SDS011;6597;52.218;9.882;2023-06-10T06:18:02;10.23;;;5.67;;
13061;SDS011;6597;52.218;9.882;2023-06-10T06:20:29;12.23;;;4.87;;
13061;SDS011;6597;52.218;9.882;2023-06-10T06:22:55;8.17;;;4.90;;
13061;SDS011;6597;52.218;9.882;2023-06-10T06:25:23;8.77;;;5.37;;
13061;SDS011;6597;52.218;9.882;2023-06-10T06:27:50;8.47;;;5.03;;
13061;SDS011;6597;52.218;9.882;2023-06-10T06:30:16;9.13;;;5.47;;
13061;SDS011;6597;52.218;9.882;2023-06-10T06:32:43;7.27;;;4.67;;
13061;SDS011;6597;52.218;9.882;2023-06-10T06:35:09;9.53;;;5.00;;
13061;SDS011;6597;52.218;9.882;2023-06-10T06:37:36;10.57;;;5.47;;
13061;SDS011;6597;52.218;9.882;2023-06-10T06:40:16;13.57;;;5.87;;
13061;SDS011;6597;52.218;9.882;2023-06-10T06:42:44;11.93;;;6.03;;
13061;SDS011;6597;52.218;9.882;2023-06-10T06:45:22;17.60;;;5.97;;
13061;SDS011;6597;52.218;9.882;2023-06-10T06:47:49;13.10;;;5.40;;
13061;SDS011;6597;52.218;9.882;2023-06-10T06:50:16;8.80;;;4.67;;
13061;SDS011;6597;52.218;9.882;2023-06-10T06:52:43;10.50;;;4.87;;
13061;SDS011;6597;52.218;9.882;2023-06-10T06:55:10;8.87;;;5.27;;
13061;SDS011;6597;52.218;9.882;2023-06-10T06:57:36;10.93;;;5.20;;
13061;SDS011;6597;52.218;9.882;2023-06-10T07:00:05;18.53;;;5.70;;
13061;SDS011;6597;52.218;9.882;2023-06-10T07:02:34;14.87;;;4.77;;
13061;SDS011;6597;52.218;9.882;2023-06-10T07:05:00;10.00;;;5.10;;
13061;SDS011;6597;52.218;9.882;2023-06-10T07:07:27;8.30;;;5.20;;
13061;SDS011;6597;52.218;9.882;2023-06-10T07:09:53;9.50;;;5.30;;
13061;SDS011;6597;52.218;9.882;2023-06-10T07:12:20;9.30;;;4.97;;
13061;SDS011;6597;52.218;9.882;2023-06-10T07:14:49;10.40;;;5.60;;
13061;SDS011;6597;52.218;9.882;2023-06-10T07:17:17;6.83;;;5.33;;
13061;SDS011;6597;52.218;9.882;2023-06-10T07:19:43;8.33;;;5.23;;
13061;SDS011;6597;52.218;9.882;2023-06-10T07:22:10;14.03;;;5.50;;
13061;SDS011;6597;52.218;9.882;2023-06-10T07:24:37;11.03;;;5.57;;
13061;SDS011;6597;52.218;9.882;2023-06-10T07:27:03;10.07;;;5.50;;
13061;SDS011;6597;52.218;9.882;2023-06-10T07:29:30;9.80;;;4.88;;
13061;SDS011;6597;52.218;9.882;2023-06-10T07:31:57;7.90;;;4.47;;
13061;SDS011;6597;52.218;9.882;2023-06-10T07:34:25;10.23;;;4.57;;
13061;SDS011;6597;52.218;9.882;2023-06-10T07:36:51;12.68;;;4.97;;
13061;SDS011;6597;52.218;9.882;2023-06-10T07:39:18;7.55;;;4.70;;
13061;SDS011;6597;52.218;9.882;2023-06-10T07:41:44;9.48;;;5.13;;
13061;SDS011;6597;52.218;9.882;2023-06-10T07:44:11;9.82;;;4.75;;
13061;SDS011;6597;52.218;9.882;2023-06-10T07:46:38;8.20;;;5.15;;
13061;SDS011;6597;52.218;9.882;2023-06-10T07:49:04;8.32;;;4.70;;
13061;SDS011;6597;52.218;9.882;2023-06-10T07:51:32;7.13;;;4.97;;
13061;SDS011;6597;52.218;9.882;2023-06-10T07:53:59;12.68;;;4.85;;
13061;SDS011;6597;52.218;9.882;2023-06-10T07:56:25;11.00;;;5.53;;
13061;SDS011;6597;52.218;9.882;2023-06-10T07:58:52;7.60;;;4.40;;
13061;SDS011;6597;52.218;9.882;2023-06-10T08:01:18;12.73;;;5.20;;
13061;SDS011;6597;52.218;9.882;2023-06-10T08:03:45;7.85;;;4.88;;
13061;SDS011;6597;52.218;9.882;2023-06-10T08:06:11;9.00;;;4.90;;
13061;SDS011;6597;52.218;9.882;2023-06-10T08:08:40;8.55;;;4.35;;
13061;SDS011;6597;52.218;9.882;2023-06-10T08:11:08;12.45;;;5.63;;
13061;SDS011;6597;52.218;9.882;2023-06-10T08:13:37;8.52;;;4.70;;
13061;SDS011;6597;52.218;9.882;2023-06-10T08:16:03;7.18;;;4.80;;
13061;SDS011;6597;52.218;9.882;2023-06-10T08:18:30;8.10;;;4.55;;
13061;SDS011;6597;52.218;9.882;2023-06-10T08:20:56;9.43;;;4.32;;
13061;SDS011;6597;52.218;9.882;2023-06-10T08:23:23;8.43;;;4.65;;
13061;SDS011;6597;52.218;9.882;2023-06-10T08:25:51;9.05;;;4.80;;
13061;SDS011;6597;52.218;9.882;2023-06-10T08:28:17;7.40;;;4.05;;
13061;SDS011;6597;52.218;9.882;2023-06-10T08:30:44;10.15;;;4.95;;
13061;SDS011;6597;52.218;9.882;2023-06-10T08:33:11;4.88;;;3.78;;
13061;SDS011;6597;52.218;9.882;2023-06-10T08:35:37;7.68;;;4.40;;
13061;SDS011;6597;52.218;9.882;2023-06-10T08:38:04;6.72;;;3.95;;
13061;SDS011;6597;52.218;9.882;2023-06-10T08:40:31;8.82;;;4.75;;
13061;SDS011;6597;52.218;9.882;2023-06-10T08:43:02;9.93;;;4.28;;
13061;SDS011;6597;52.218;9.882;2023-06-10T08:45:32;10.88;;;4.40;;
13061;SDS011;6597;52.218;9.882;2023-06-10T08:48:02;8.57;;;5.07;;
13061;SDS011;6597;52.218;9.882;2023-06-10T08:50:31;12.57;;;4.32;;
13061;SDS011;6597;52.218;9.882;2023-06-10T08:53:00;10.23;;;4.38;;
13061;SDS011;6597;52.218;9.882;2023-06-10T08:55:29;10.15;;;4.57;;
13061;SDS011;6597;52.218;9.882;2023-06-10T08:57:58;9.32;;;4.68;;
13061;SDS011;6597;52.218;9.882;2023-06-10T09:00:27;9.13;;;4.35;;
13061;SDS011;6597;52.218;9.882;2023-06-10T09:02:55;7.40;;;4.50;;
13061;SDS011;6597;52.218;9.882;2023-06-10T09:05:22;8.73;;;4.00;;
13061;SDS011;6597;52.218;9.882;2023-06-10T09:07:50;9.73;;;4.50;;
13061;SDS011;6597;52.218;9.882;2023-06-10T09:10:18;8.50;;;4.18;;
13061;SDS011;6597;52.218;9.882;2023-06-10T09:12:44;6.78;;;4.30;;
13061;SDS011;6597;52.218;9.882;2023-06-10T09:15:12;8.07;;;4.10;;
13061;SDS011;6597;52.218;9.882;2023-06-10T09:17:39;6.88;;;3.97;;
13061;SDS011;6597;52.218;9.882;2023-06-10T09:20:07;13.82;;;4.80;;
13061;SDS011;6597;52.218;9.882;2023-06-10T09:22:34;7.78;;;3.90;;
13061;SDS011;6597;52.218;9.882;2023-06-10T09:25:04;7.97;;;4.25;;
13061;SDS011;6597;52.218;9.882;2023-06-10T09:27:32;8.52;;;4.43;;
13061;SDS011;6597;52.218;9.882;2023-06-10T09:29:58;8.32;;;4.90;;
13061;SDS011;6597;52.218;9.882;2023-06-10T09:32:26;6.22;;;3.95;;
13061;SDS011;6597;52.218;9.882;2023-06-10T09:34:54;7.65;;;4.60;;
13061;SDS011;6597;52.218;9.882;2023-06-10T09:37:21;7.93;;;4.22;;
13061;SDS011;6597;52.218;9.882;2023-06-10T09:40:01;11.48;;;4.80;;
13061;SDS011;6597;52.218;9.882;2023-06-10T09:42:31;9.43;;;4.82;;
13061;SDS011;6597;52.218;9.882;2023-06-10T09:45:00;8.70;;;4.60;;
13061;SDS011;6597;52.218;9.882;2023-06-10T09:47:28;9.93;;;4.43;;
13061;SDS011;6597;52.218;9.882;2023-06-10T09:49:54;8.48;;;4.53;;
13061;SDS011;6597;52.218;9.882;2023-06-10T09:52:21;10.70;;;4.72;;
13061;SDS011;6597;52.218;9.882;2023-06-10T09:54:48;11.88;;;5.20;;
13061;SDS011;6597;52.218;9.882;2023-06-10T09:57:15;9.48;;;4.93;;
13061;SDS011;6597;52.218;9.882;2023-06-10T09:59:43;8.52;;;4.82;;
13061;SDS011;6597;52.218;9.882;2023-06-10T10:05:59;9.90;;;5.18;;
13061;SDS011;6597;52.218;9.882;2023-06-10T10:08:51;6.82;;;4.35;;
13061;SDS011;6597;52.218;9.882;2023-06-10T10:11:18;10.82;;;5.05;;
13061;SDS011;6597;52.218;9.882;2023-06-10T10:13:47;10.15;;;5.03;;
13061;SDS011;6597;52.218;9.882;2023-06-10T10:16:15;10.15;;;4.47;;
13061;SDS011;6597;52.218;9.882;2023-06-10T10:18:45;8.77;;;4.68;;
13061;SDS011;6597;52.218;9.882;2023-06-10T10:21:20;9.88;;;5.38;;
13061;SDS011;6597;52.218;9.882;2023-06-10T10:23:49;9.35;;;5.68;;
13061;SDS011;6597;52.218;9.882;2023-06-10T10:26:20;9.55;;;5.28;;
13061;SDS011;6597;52.218;9.882;2023-06-10T10:28:49;8.60;;;4.80;;
13061;SDS011;6597;52.218;9.882;2023-06-10T10:31:24;10.35;;;5.05;;
13061;SDS011;6597;52.218;9.882;2023-06-10T10:33:58;10.30;;;5.20;;
13061;SDS011;6597;52.218;9.882;2023-06-10T10:36:27;11.55;;;5.90;;
13061;SDS011;6597;52.218;9.882;2023-06-10T10:38:54;8.50;;;5.20;;
13061;SDS011;6597;52.218;9.882;2023-06-10T10:41:20;12.70;;;5.28;;
13061;SDS011;6597;52.218;9.882;2023-06-10T10:43:49;8.02;;;6.20;;
13061;SDS011;6597;52.218;9.882;2023-06-10T10:46:16;11.73;;;5.53;;
13061;SDS011;6597;52.218;9.882;2023-06-10T10:48:44;7.70;;;5.45;;
13061;SDS011;6597;52.218;9.882;2023-06-10T10:51:11;8.07;;;5.30;;
13061;SDS011;6597;52.218;9.882;2023-06-10T10:53:39;11.00;;;5.80;;
13061;SDS011;6597;52.218;9.882;2023-06-10T10:56:12;9.43;;;5.47;;
13061;SDS011;6597;52.218;9.882;2023-06-10T10:58:39;6.88;;;5.03;;
13061;SDS011;6597;52.218;9.882;2023-06-10T11:01:12;7.63;;;4.95;;
13061;SDS011;6597;52.218;9.882;2023-06-10T11:03:43;6.63;;;4.60;;
13061;SDS011;6597;52.218;9.882;2023-06-10T11:06:12;10.10;;;5.43;;
13061;SDS011;6597;52.218;9.882;2023-06-10T11:08:48;8.88;;;5.70;;
13061;SDS011;6597;52.218;9.882;2023-06-10T11:11:19;11.95;;;5.35;;
13061;SDS011;6597;52.218;9.882;2023-06-10T11:14:05;10.80;;;5.10;;
13061;SDS011;6597;52.218;9.882;2023-06-10T11:16:38;5.63;;;4.55;;
13061;SDS011;6597;52.218;9.882;2023-06-10T11:19:06;6.65;;;5.20;;
13061;SDS011;6597;52.218;9.882;2023-06-10T11:21:36;9.02;;;5.35;;
13061;SDS011;6597;52.218;9.882;2023-06-10T11:24:12;11.10;;;5.20;;
13061;SDS011;6597;52.218;9.882;2023-06-10T11:26:43;10.85;;;5.40;;
13061;SDS011;6597;52.218;9.882;2023-06-10T11:29:10;7.13;;;4.97;;
13061;SDS011;6597;52.218;9.882;2023-06-10T11:31:43;8.15;;;5.25;;
13061;SDS011;6597;52.218;9.882;2023-06-10T11:34:12;6.45;;;5.10;;
13061;SDS011;6597;52.218;9.882;2023-06-10T11:36:40;10.73;;;5.20;;
13061;SDS011;6597;52.218;9.882;2023-06-10T11:39:10;9.73;;;5.03;;
13061;SDS011;6597;52.218;9.882;2023-06-10T11:41:39;8.48;;;5.70;;
13061;SDS011;6597;52.218;9.882;2023-06-10T11:44:09;9.50;;;5.53;;
13061;SDS011;6597;52.218;9.882;2023-06-10T11:46:36;8.15;;;5.20;;
13061;SDS011;6597;52.218;9.882;2023-06-10T11:49:04;7.70;;;5.75;;
13061;SDS011;6597;52.218;9.882;2023-06-10T11:51:32;7.70;;;4.90;;
13061;SDS011;6597;52.218;9.882;2023-06-10T11:54:01;7.72;;;5.22;;
13061;SDS011;6597;52.218;9.882;2023-06-10T11:56:28;9.88;;;5.05;;
13061;SDS011;6597;52.218;9.882;2023-06-10T11:58:57;10.25;;;5.20;;
13061;SDS011;6597;52.218;9.882;2023-06-10T12:01:29;8.27;;;5.25;;
13061;SDS011;6597;52.218;9.882;2023-06-10T12:03:57;7.82;;;5.43;;
13061;SDS011;6597;52.218;9.882;2023-06-10T12:06:24;8.73;;;5.40;;
13061;SDS011;6597;52.218;9.882;2023-06-10T12:08:51;8.63;;;5.65;;
13061;SDS011;6597;52.218;9.882;2023-06-10T12:11:17;7.95;;;5.47;;
13061;SDS011;6597;52.218;9.882;2023-06-10T12:13:47;8.65;;;5.13;;
13061;SDS011;6597;52.218;9.882;2023-06-10T12:16:16;7.97;;;5.25;;
13061;SDS011;6597;52.218;9.882;2023-06-10T12:18:45;8.48;;;5.80;;
13061;SDS011;6597;52.218;9.882;2023-06-10T12:21:17;9.20;;;5.03;;
13061;SDS011;6597;52.218;9.882;2023-06-10T12:26:40;8.88;;;5.57;;
13061;SDS011;6597;52.218;9.882;2023-06-10T12:29:16;8.75;;;5.30;;
13061;SDS011;6597;52.218;9.882;2023-06-10T12:31:53;9.63;;;5.60;;
13061;SDS011;6597;52.218;9.882;2023-06-10T12:34:27;5.97;;;5.28;;
13061;SDS011;6597;52.218;9.882;2023-06-10T12:36:55;8.65;;;5.72;;
13061;SDS011;6597;52.218;9.882;2023-06-10T12:39:21;11.73;;;5.80;;
13061;SDS011;6597;52.218;9.882;2023-06-10T12:41:48;7.88;;;6.18;;
13061;SDS011;6597;52.218;9.882;2023-06-10T12:44:15;9.35;;;5.70;;
13061;SDS011;6597;52.218;9.882;2023-06-10T12:46:41;8.50;;;5.57;;
13061;SDS011;6597;52.218;9.882;2023-06-10T12:49:09;8.85;;;5.90;;
13061;SDS011;6597;52.218;9.882;2023-06-10T12:51:45;9.52;;;6.07;;
13061;SDS011;6597;52.218;9.882;2023-06-10T12:54:11;10.73;;;6.28;;
13061;SDS011;6597;52.218;9.882;2023-06-10T13:11:01;8.65;;;5.10;;
13061;SDS011;6597;52.218;9.882;2023-06-10T13:13:28;10.32;;;5.68;;
13061;SDS011;6597;52.218;9.882;2023-06-10T13:15:54;8.18;;;5.53;;
13061;SDS011;6597;52.218;9.882;2023-06-10T13:18:21;9.18;;;5.55;;
13061;SDS011;6597;52.218;9.882;2023-06-10T13:20:48;6.28;;;5.45;;
13061;SDS011;6597;52.218;9.882;2023-06-10T13:23:15;5.93;;;5.15;;
13061;SDS011;6597;52.218;9.882;2023-06-10T13:25:43;8.75;;;5.70;;
13061;SDS011;6597;52.218;9.882;2023-06-10T13:28:10;6.95;;;5.40;;
13061;SDS011;6597;52.218;9.882;2023-06-10T13:30:37;15.45;;;5.32;;
13061;SDS011;6597;52.218;9.882;2023-06-10T13:33:03;6.22;;;5.38;;
13061;SDS011;6597;52.218;9.882;2023-06-10T13:35:30;13.95;;;5.95;;
13061;SDS011;6597;52.218;9.882;2023-06-10T13:37:56;8.05;;;6.00;;
13061;SDS011;6597;52.218;9.882;2023-06-10T13:40:23;6.88;;;5.45;;
13061;SDS011;6597;52.218;9.882;2023-06-10T13:42:51;6.03;;;4.85;;
13061;SDS011;6597;52.218;9.882;2023-06-10T13:45:19;9.27;;;5.72;;
13061;SDS011;6597;52.218;9.882;2023-06-10T13:47:45;7.82;;;5.53;;
13061;SDS011;6597;52.218;9.882;2023-06-10T13:50:12;9.77;;;5.10;;
13061;SDS011;6597;52.218;9.882;2023-06-10T13:52:39;6.97;;;5.35;;
13061;SDS011;6597;52.218;9.882;2023-06-10T13:55:06;6.97;;;5.53;;
13061;SDS011;6597;52.218;9.882;2023-06-10T13:57:33;8.70;;;5.85;;
13061;SDS011;6597;52.218;9.882;2023-06-10T14:00:01;9.13;;;5.35;;
13061;SDS011;6597;52.218;9.882;2023-06-10T14:02:29;7.53;;;5.35;;
13061;SDS011;6597;52.218;9.882;2023-06-10T14:04:55;9.02;;;5.63;;
13061;SDS011;6597;52.218;9.882;2023-06-10T14:07:23;9.23;;;5.70;;
13061;SDS011;6597;52.218;9.882;2023-06-10T14:09:51;5.85;;;5.20;;
13061;SDS011;6597;52.218;9.882;2023-06-10T14:12:17;8.38;;;5.35;;
13061;SDS011;6597;52.218;9.882;2023-06-10T14:14:44;8.98;;;5.60;;
13061;SDS011;6597;52.218;9.882;2023-06-10T14:17:12;8.35;;;5.50;;
13061;SDS011;6597;52.218;9.882;2023-06-10T14:19:38;8.40;;;5.72;;
13061;SDS011;6597;52.218;9.882;2023-06-10T14:22:05;8.40;;;6.25;;
13061;SDS011;6597;52.218;9.882;2023-06-10T14:24:33;8.93;;;5.55;;
13061;SDS011;6597;52.218;9.882;2023-06-10T14:27:00;6.68;;;5.57;;
13061;SDS011;6597;52.218;9.882;2023-06-10T14:29:26;9.13;;;6.18;;
13061;SDS011;6597;52.218;9.882;2023-06-10T14:31:54;8.15;;;5.88;;
13061;SDS011;6597;52.218;9.882;2023-06-10T14:34:22;6.70;;;5.90;;
13061;SDS011;6597;52.218;9.882;2023-06-10T14:36:53;7.97;;;5.70;;
13061;SDS011;6597;52.218;9.882;2023-06-10T14:39:20;7.32;;;5.55;;
13061;SDS011;6597;52.218;9.882;2023-06-10T14:41:46;6.25;;;5.20;;
13061;SDS011;6597;52.218;9.882;2023-06-10T14:44:13;6.65;;;5.32;;
13061;SDS011;6597;52.218;9.882;2023-06-10T14:46:39;9.40;;;5.68;;
13061;SDS011;6597;52.218;9.882;2023-06-10T14:49:06;7.10;;;5.32;;
13061;SDS011;6597;52.218;9.882;2023-06-10T14:51:33;9.68;;;5.78;;
13061;SDS011;6597;52.218;9.882;2023-06-10T14:54:01;8.90;;;5.97;;
13061;SDS011;6597;52.218;9.882;2023-06-10T14:56:27;9.20;;;5.35;;
13061;SDS011;6597;52.218;9.882;2023-06-10T14:58:54;7.72;;;5.57;;
13061;SDS011;6597;52.218;9.882;2023-06-10T15:01:21;8.85;;;5.82;;
13061;SDS011;6597;52.218;9.882;2023-06-10T15:03:47;10.30;;;5.15;;
13061;SDS011;6597;52.218;9.882;2023-06-10T15:06:14;9.48;;;5.35;;
13061;SDS011;6597;52.218;9.882;2023-06-10T15:08:43;6.45;;;4.90;;
13061;SDS011;6597;52.218;9.882;2023-06-10T15:11:10;7.45;;;5.80;;
13061;SDS011;6597;52.218;9.882;2023-06-10T15:13:36;7.47;;;5.47;;
13061;SDS011;6597;52.218;9.882;2023-06-10T15:16:03;7.68;;;5.70;;
13061;SDS011;6597;52.218;9.882;2023-06-10T15:18:30;7.35;;;5.35;;
13061;SDS011;6597;52.218;9.882;2023-06-10T15:20:57;9.43;;;5.85;;
13061;SDS011;6597;52.218;9.882;2023-06-10T15:23:23;6.45;;;5.28;;